sensor_id;sensor_type;location;lat;lon;timestamp;temperature;humidity
19359;DHT22;9815;52.334;20.890;2023-07-16T00:00:54;23.50;46.40
19359;DHT22;9815;52.334;20.890;2023-07-16T00:03:23;23.50;46.40
19359;DHT22;9815;52.334;20.890;2023-07-16T00:05:51;23.50;46.80
19359;DHT22;9815;52.334;20.890;2023-07-16T00:08:19;23.50;46.50
19359;DHT22;9815;52.334;20.890;2023-07-16T00:10:48;23.50;46.10
19359;DHT22;9815;52.334;20.890;2023-07-16T00:13:16;23.50;46.40
19359;DHT22;9815;52.334;20.890;2023-07-16T00:15:44;23.50;46.60
19359;DHT22;9815;52.334;20.890;2023-07-16T00:18:14;23.40;46.50
19359;DHT22;9815;52.334;20.890;2023-07-16T00:20:42;23.40;47.00
19359;DHT22;9815;52.334;20.890;2023-07-16T00:23:11;23.40;46.80
19359;DHT22;9815;52.334;20.890;2023-07-16T00:25:39;23.40;46.30
19359;DHT22;9815;52.334;20.890;2023-07-16T00:28:07;23.30;47.30
19359;DHT22;9815;52.334;20.890;2023-07-16T00:30:37;23.30;48.50
19359;DHT22;9815;52.334;20.890;2023-07-16T00:33:07;23.30;49.20
19359;DHT22;9815;52.334;20.890;2023-07-16T00:35:37;23.20;50.30
19359;DHT22;9815;52.334;20.890;2023-07-16T00:38:05;23.20;51.70
19359;DHT22;9815;52.334;20.890;2023-07-16T00:40:33;23.20;52.60
19359;DHT22;9815;52.334;20.890;2023-07-16T00:43:02;23.10;53.60
19359;DHT22;9815;52.334;20.890;2023-07-16T00:45:30;23.10;55.60
19359;DHT22;9815;52.334;20.890;2023-07-16T00:47:58;23.00;56.40
19359;DHT22;9815;52.334;20.890;2023-07-16T00:50:27;23.00;57.70
19359;DHT22;9815;52.334;20.890;2023-07-16T00:52:56;23.00;59.30
19359;DHT22;9815;52.334;20.890;2023-07-16T00:55:25;23.10;59.70
19359;DHT22;9815;52.334;20.890;2023-07-16T00:57:53;23.00;60.60
19359;DHT22;9815;52.334;20.890;2023-07-16T01:00:24;23.00;62.60
19359;DHT22;9815;52.334;20.890;2023-07-16T01:02:54;23.00;65.10
19359;DHT22;9815;52.334;20.890;2023-07-16T01:05:25;22.90;67.20
19359;DHT22;9815;52.334;20.890;2023-07-16T01:08:03;22.90;68.30
19359;DHT22;9815;52.334;20.890;2023-07-16T01:10:32;22.80;70.00
19359;DHT22;9815;52.334;20.890;2023-07-16T01:13:01;22.80;71.10
19359;DHT22;9815;52.334;20.890;2023-07-16T01:15:30;22.80;72.00
19359;DHT22;9815;52.334;20.890;2023-07-16T01:17:59;22.80;74.50
19359;DHT22;9815;52.334;20.890;2023-07-16T01:20:28;22.80;75.40
19359;DHT22;9815;52.334;20.890;2023-07-16T01:23:35;22.70;77.80
19359;DHT22;9815;52.334;20.890;2023-07-16T01:26:08;22.60;81.70
19359;DHT22;9815;52.334;20.890;2023-07-16T01:29:06;22.60;86.10
19359;DHT22;9815;52.334;20.890;2023-07-16T01:31:35;22.60;89.30
19359;DHT22;9815;52.334;20.890;2023-07-16T01:34:06;22.50;90.10
19359;DHT22;9815;52.334;20.890;2023-07-16T01:36:36;22.50;91.10
19359;DHT22;9815;52.334;20.890;2023-07-16T01:39:05;22.40;92.70
19359;DHT22;9815;52.334;20.890;2023-07-16T01:41:34;22.30;93.10
19359;DHT22;9815;52.334;20.890;2023-07-16T01:44:02;22.30;93.90
19359;DHT22;9815;52.334;20.890;2023-07-16T01:46:32;22.20;94.40
19359;DHT22;9815;52.334;20.890;2023-07-16T01:49:00;22.10;96.60
19359;DHT22;9815;52.334;20.890;2023-07-16T01:51:29;22.00;98.50
19359;DHT22;9815;52.334;20.890;2023-07-16T01:53:57;21.90;99.90
19359;DHT22;9815;52.334;20.890;2023-07-16T01:56:25;21.90;99.90
19359;DHT22;9815;52.334;20.890;2023-07-16T01:58:54;21.90;99.90
19359;DHT22;9815;52.334;20.890;2023-07-16T02:01:22;21.80;99.90
19359;DHT22;9815;52.334;20.890;2023-07-16T02:03:52;21.80;99.90
19359;DHT22;9815;52.334;20.890;2023-07-16T02:06:20;21.70;99.90
19359;DHT22;9815;52.334;20.890;2023-07-16T02:08:49;21.60;99.90
19359;DHT22;9815;52.334;20.890;2023-07-16T02:11:19;21.50;99.90
19359;DHT22;9815;52.334;20.890;2023-07-16T02:13:47;21.50;99.90
19359;DHT22;9815;52.334;20.890;2023-07-16T02:16:16;21.50;99.90
19359;DHT22;9815;52.334;20.890;2023-07-16T02:18:45;21.40;99.90
19359;DHT22;9815;52.334;20.890;2023-07-16T02:21:14;21.40;99.90
19359;DHT22;9815;52.334;20.890;2023-07-16T02:23:43;21.40;99.90
19359;DHT22;9815;52.334;20.890;2023-07-16T02:26:11;21.30;99.90
19359;DHT22;9815;52.334;20.890;2023-07-16T02:28:42;21.20;99.90
19359;DHT22;9815;52.334;20.890;2023-07-16T02:31:10;21.20;99.90
19359;DHT22;9815;52.334;20.890;2023-07-16T02:33:40;21.10;99.90
19359;DHT22;9815;52.334;20.890;2023-07-16T02:36:08;21.00;99.90
19359;DHT22;9815;52.334;20.890;2023-07-16T02:38:38;21.00;99.90
19359;DHT22;9815;52.334;20.890;2023-07-16T02:41:06;20.90;99.90
19359;DHT22;9815;52.334;20.890;2023-07-16T02:43:35;20.80;99.90
19359;DHT22;9815;52.334;20.890;2023-07-16T02:46:04;20.70;99.90
19359;DHT22;9815;52.334;20.890;2023-07-16T02:48:32;20.60;99.90
19359;DHT22;9815;52.334;20.890;2023-07-16T02:51:01;20.50;99.90
19359;DHT22;9815;52.334;20.890;2023-07-16T02:53:30;20.50;99.90
19359;DHT22;9815;52.334;20.890;2023-07-16T02:55:59;20.50;99.90
19359;DHT22;9815;52.334;20.890;2023-07-16T02:58:28;20.40;99.90
19359;DHT22;9815;52.334;20.890;2023-07-16T03:00:56;20.40;99.90
19359;DHT22;9815;52.334;20.890;2023-07-16T03:03:25;20.40;99.90
19359;DHT22;9815;52.334;20.890;2023-07-16T03:06:01;20.40;99.90
19359;DHT22;9815;52.334;20.890;2023-07-16T03:08:29;20.30;99.90
19359;DHT22;9815;52.334;20.890;2023-07-16T03:11:00;20.30;99.90
19359;DHT22;9815;52.334;20.890;2023-07-16T03:13:28;20.30;99.90
19359;DHT22;9815;52.334;20.890;2023-07-16T03:15:56;20.20;99.90
19359;DHT22;9815;52.334;20.890;2023-07-16T03:18:28;20.20;99.90
19359;DHT22;9815;52.334;20.890;2023-07-16T03:20:57;20.20;99.90
19359;DHT22;9815;52.334;20.890;2023-07-16T03:23:26;20.10;99.90
19359;DHT22;9815;52.334;20.890;2023-07-16T03:25:54;20.20;99.90
19359;DHT22;9815;52.334;20.890;2023-07-16T03:28:24;20.20;99.90
19359;DHT22;9815;52.334;20.890;2023-07-16T03:30:53;20.20;99.90
19359;DHT22;9815;52.334;20.890;2023-07-16T03:33:21;20.30;99.90
19359;DHT22;9815;52.334;20.890;2023-07-16T03:35:50;20.30;99.90
19359;DHT22;9815;52.334;20.890;2023-07-16T03:38:19;20.30;99.90
19359;DHT22;9815;52.334;20.890;2023-07-16T03:40:49;20.40;99.90
19359;DHT22;9815;52.334;20.890;2023-07-16T03:43:17;20.40;99.90
19359;DHT22;9815;52.334;20.890;2023-07-16T03:45:49;20.40;99.90
19359;DHT22;9815;52.334;20.890;2023-07-16T03:48:17;20.40;99.90
19359;DHT22;9815;52.334;20.890;2023-07-16T03:50:46;20.40;99.90
19359;DHT22;9815;52.334;20.890;2023-07-16T03:53:15;20.40;99.90
19359;DHT22;9815;52.334;20.890;2023-07-16T03:55:43;20.50;99.90
19359;DHT22;9815;52.334;20.890;2023-07-16T03:58:11;20.50;99.90
19359;DHT22;9815;52.334;20.890;2023-07-16T04:00:41;20.50;99.90
19359;DHT22;9815;52.334;20.890;2023-07-16T04:03:12;20.60;99.90
19359;DHT22;9815;52.334;20.890;2023-07-16T04:05:40;20.70;99.90
19359;DHT22;9815;52.334;20.890;2023-07-16T04:08:09;20.70;99.90
19359;DHT22;9815;52.334;20.890;2023-07-16T04:10:37;20.80;99.90
19359;DHT22;9815;52.334;20.890;2023-07-16T04:13:05;20.80;99.90
19359;DHT22;9815;52.334;20.890;2023-07-16T04:15:33;20.90;99.90
19359;DHT22;9815;52.334;20.890;2023-07-16T04:18:02;20.90;99.90
19359;DHT22;9815;52.334;20.890;2023-07-16T04:20:32;21.00;99.90
19359;DHT22;9815;52.334;20.890;2023-07-16T04:23:01;21.20;99.90
19359;DHT22;9815;52.334;20.890;2023-07-16T04:25:30;21.20;99.90
19359;DHT22;9815;52.334;20.890;2023-07-16T04:27:58;21.30;99.90
19359;DHT22;9815;52.334;20.890;2023-07-16T04:30:26;21.40;99.90
19359;DHT22;9815;52.334;20.890;2023-07-16T04:32:55;21.50;99.90
19359;DHT22;9815;52.334;20.890;2023-07-16T04:35:23;21.60;99.90
19359;DHT22;9815;52.334;20.890;2023-07-16T04:37:53;21.90;99.90
19359;DHT22;9815;52.334;20.890;2023-07-16T04:40:21;22.00;99.90
19359;DHT22;9815;52.334;20.890;2023-07-16T04:42:50;22.10;99.90
19359;DHT22;9815;52.334;20.890;2023-07-16T04:45:18;22.30;99.90
19359;DHT22;9815;52.334;20.890;2023-07-16T04:47:47;22.40;99.90
19359;DHT22;9815;52.334;20.890;2023-07-16T04:50:15;22.60;99.90
19359;DHT22;9815;52.334;20.890;2023-07-16T04:52:43;22.70;99.90
19359;DHT22;9815;52.334;20.890;2023-07-16T04:55:13;22.80;99.90
19359;DHT22;9815;52.334;20.890;2023-07-16T04:57:41;23.00;99.90
19359;DHT22;9815;52.334;20.890;2023-07-16T05:00:10;23.10;99.90
19359;DHT22;9815;52.334;20.890;2023-07-16T05:02:38;23.20;99.90
19359;DHT22;9815;52.334;20.890;2023-07-16T05:05:08;23.40;99.90
19359;DHT22;9815;52.334;20.890;2023-07-16T05:07:36;23.40;99.90
19359;DHT22;9815;52.334;20.890;2023-07-16T05:10:05;23.60;99.90
19359;DHT22;9815;52.334;20.890;2023-07-16T05:12:35;23.70;99.90
19359;DHT22;9815;52.334;20.890;2023-07-16T05:15:04;23.90;99.30
19359;DHT22;9815;52.334;20.890;2023-07-16T05:17:32;23.90;99.00
19359;DHT22;9815;52.334;20.890;2023-07-16T05:20:01;24.00;99.90
19359;DHT22;9815;52.334;20.890;2023-07-16T05:22:30;24.10;98.20
19359;DHT22;9815;52.334;20.890;2023-07-16T05:24:58;24.20;96.40
19359;DHT22;9815;52.334;20.890;2023-07-16T05:27:27;24.30;95.30
19359;DHT22;9815;52.334;20.890;2023-07-16T05:29:57;24.30;94.70
19359;DHT22;9815;52.334;20.890;2023-07-16T05:32:25;24.40;93.50
19359;DHT22;9815;52.334;20.890;2023-07-16T05:34:53;24.50;92.40
19359;DHT22;9815;52.334;20.890;2023-07-16T05:37:21;24.60;91.40
19359;DHT22;9815;52.334;20.890;2023-07-16T05:39:50;24.60;92.10
19359;DHT22;9815;52.334;20.890;2023-07-16T05:42:18;24.70;92.00
19359;DHT22;9815;52.334;20.890;2023-07-16T05:44:47;24.80;90.70
19359;DHT22;9815;52.334;20.890;2023-07-16T05:47:17;24.90;89.50
19359;DHT22;9815;52.334;20.890;2023-07-16T05:49:45;25.00;88.70
19359;DHT22;9815;52.334;20.890;2023-07-16T05:52:13;25.00;87.50
19359;DHT22;9815;52.334;20.890;2023-07-16T05:54:43;25.10;89.00
19359;DHT22;9815;52.334;20.890;2023-07-16T05:57:12;25.20;89.90
19359;DHT22;9815;52.334;20.890;2023-07-16T05:59:40;25.20;89.70
19359;DHT22;9815;52.334;20.890;2023-07-16T06:02:08;25.30;89.50
19359;DHT22;9815;52.334;20.890;2023-07-16T06:04:38;25.40;77.60
19359;DHT22;9815;52.334;20.890;2023-07-16T06:07:06;25.40;77.10
19359;DHT22;9815;52.334;20.890;2023-07-16T06:09:35;25.60;70.00
19359;DHT22;9815;52.334;20.890;2023-07-16T06:12:04;25.70;70.10
19359;DHT22;9815;52.334;20.890;2023-07-16T06:14:32;25.90;60.80
19359;DHT22;9815;52.334;20.890;2023-07-16T06:17:00;26.10;58.70
19359;DHT22;9815;52.334;20.890;2023-07-16T06:19:28;26.20;57.00
19359;DHT22;9815;52.334;20.890;2023-07-16T06:21:58;26.30;58.00
19359;DHT22;9815;52.334;20.890;2023-07-16T06:24:27;26.40;55.20
19359;DHT22;9815;52.334;20.890;2023-07-16T06:26:55;26.60;50.90
19359;DHT22;9815;52.334;20.890;2023-07-16T06:29:23;26.60;49.80
19359;DHT22;9815;52.334;20.890;2023-07-16T06:31:55;26.70;51.40
19359;DHT22;9815;52.334;20.890;2023-07-16T06:34:24;26.90;47.50
19359;DHT22;9815;52.334;20.890;2023-07-16T06:36:53;26.90;46.60
19359;DHT22;9815;52.334;20.890;2023-07-16T06:39:22;27.10;44.80
19359;DHT22;9815;52.334;20.890;2023-07-16T06:41:50;27.10;44.70
19359;DHT22;9815;52.334;20.890;2023-07-16T06:44:22;27.20;41.30
19359;DHT22;9815;52.334;20.890;2023-07-16T06:46:50;27.30;41.50
19359;DHT22;9815;52.334;20.890;2023-07-16T06:49:18;27.40;40.10
19359;DHT22;9815;52.334;20.890;2023-07-16T06:51:47;27.40;38.80
19359;DHT22;9815;52.334;20.890;2023-07-16T06:54:15;27.50;38.30
19359;DHT22;9815;52.334;20.890;2023-07-16T06:56:45;27.50;37.10
19359;DHT22;9815;52.334;20.890;2023-07-16T06:59:13;27.60;35.80
19359;DHT22;9815;52.334;20.890;2023-07-16T07:01:41;27.70;37.10
19359;DHT22;9815;52.334;20.890;2023-07-16T07:04:10;27.80;34.90
19359;DHT22;9815;52.334;20.890;2023-07-16T07:06:38;27.80;35.10
19359;DHT22;9815;52.334;20.890;2023-07-16T07:09:06;27.80;35.00
19359;DHT22;9815;52.334;20.890;2023-07-16T07:11:35;27.80;36.20
19359;DHT22;9815;52.334;20.890;2023-07-16T07:14:04;27.90;36.70
19359;DHT22;9815;52.334;20.890;2023-07-16T07:16:35;27.90;35.40
19359;DHT22;9815;52.334;20.890;2023-07-16T07:19:04;28.00;35.30
19359;DHT22;9815;52.334;20.890;2023-07-16T07:21:32;28.10;35.30
19359;DHT22;9815;52.334;20.890;2023-07-16T07:24:00;28.10;33.10
19359;DHT22;9815;52.334;20.890;2023-07-16T07:26:29;28.20;32.90
19359;DHT22;9815;52.334;20.890;2023-07-16T07:28:57;28.30;33.50
19359;DHT22;9815;52.334;20.890;2023-07-16T07:31:27;28.40;33.50
19359;DHT22;9815;52.334;20.890;2023-07-16T07:33:55;28.60;32.20
19359;DHT22;9815;52.334;20.890;2023-07-16T07:36:24;28.60;31.00
19359;DHT22;9815;52.334;20.890;2023-07-16T07:38:52;28.80;31.70
19359;DHT22;9815;52.334;20.890;2023-07-16T07:41:20;28.90;31.30
19359;DHT22;9815;52.334;20.890;2023-07-16T07:43:49;29.00;30.70
19359;DHT22;9815;52.334;20.890;2023-07-16T07:46:17;29.10;30.80
19359;DHT22;9815;52.334;20.890;2023-07-16T07:48:48;29.20;29.80
19359;DHT22;9815;52.334;20.890;2023-07-16T07:51:16;29.40;29.50
19359;DHT22;9815;52.334;20.890;2023-07-16T07:53:44;29.90;27.60
19359;DHT22;9815;52.334;20.890;2023-07-16T07:56:12;30.20;27.00
19359;DHT22;9815;52.334;20.890;2023-07-16T07:58:41;30.60;25.80
19359;DHT22;9815;52.334;20.890;2023-07-16T08:01:10;30.90;25.30
19359;DHT22;9815;52.334;20.890;2023-07-16T08:03:38;31.00;24.50
19359;DHT22;9815;52.334;20.890;2023-07-16T08:06:08;31.10;24.50
19359;DHT22;9815;52.334;20.890;2023-07-16T08:08:38;31.20;23.80
19359;DHT22;9815;52.334;20.890;2023-07-16T08:11:07;31.50;24.00
19359;DHT22;9815;52.334;20.890;2023-07-16T08:13:35;31.60;22.90
19359;DHT22;9815;52.334;20.890;2023-07-16T08:16:03;31.80;23.00
19359;DHT22;9815;52.334;20.890;2023-07-16T08:18:32;32.10;21.60
19359;DHT22;9815;52.334;20.890;2023-07-16T08:21:00;32.30;20.90
19359;DHT22;9815;52.334;20.890;2023-07-16T08:23:30;32.50;21.00
19359;DHT22;9815;52.334;20.890;2023-07-16T08:25:58;32.60;20.10
19359;DHT22;9815;52.334;20.890;2023-07-16T08:28:27;32.80;20.20
19359;DHT22;9815;52.334;20.890;2023-07-16T08:30:55;32.80;19.90
19359;DHT22;9815;52.334;20.890;2023-07-16T08:33:23;33.10;19.70
19359;DHT22;9815;52.334;20.890;2023-07-16T08:35:52;33.30;19.20
19359;DHT22;9815;52.334;20.890;2023-07-16T08:38:20;33.50;18.80
19359;DHT22;9815;52.334;20.890;2023-07-16T08:40:50;33.60;18.60
19359;DHT22;9815;52.334;20.890;2023-07-16T08:43:19;33.80;18.50
19359;DHT22;9815;52.334;20.890;2023-07-16T08:45:49;33.90;18.10
19359;DHT22;9815;52.334;20.890;2023-07-16T08:48:17;33.80;16.60
19359;DHT22;9815;52.334;20.890;2023-07-16T08:50:47;33.90;16.60
19359;DHT22;9815;52.334;20.890;2023-07-16T08:53:16;34.10;16.50
19359;DHT22;9815;52.334;20.890;2023-07-16T08:55:45;34.20;16.00
19359;DHT22;9815;52.334;20.890;2023-07-16T08:58:22;34.20;16.00
19359;DHT22;9815;52.334;20.890;2023-07-16T09:00:51;34.40;16.60
19359;DHT22;9815;52.334;20.890;2023-07-16T09:03:22;34.60;15.90
19359;DHT22;9815;52.334;20.890;2023-07-16T09:05:50;34.80;15.90
19359;DHT22;9815;52.334;20.890;2023-07-16T09:08:19;35.10;16.00
19359;DHT22;9815;52.334;20.890;2023-07-16T09:10:53;35.10;15.30
19359;DHT22;9815;52.334;20.890;2023-07-16T09:13:23;35.00;15.20
19359;DHT22;9815;52.334;20.890;2023-07-16T09:15:55;35.10;15.20
19359;DHT22;9815;52.334;20.890;2023-07-16T09:18:25;35.50;14.90
19359;DHT22;9815;52.334;20.890;2023-07-16T09:20:55;35.50;14.60
19359;DHT22;9815;52.334;20.890;2023-07-16T09:23:26;35.50;14.50
19359;DHT22;9815;52.334;20.890;2023-07-16T09:25:55;35.60;14.60
19359;DHT22;9815;52.334;20.890;2023-07-16T09:28:25;35.90;14.70
19359;DHT22;9815;52.334;20.890;2023-07-16T09:30:54;36.10;14.20
19359;DHT22;9815;52.334;20.890;2023-07-16T09:33:23;35.70;14.90
19359;DHT22;9815;52.334;20.890;2023-07-16T09:35:53;36.10;14.00
19359;DHT22;9815;52.334;20.890;2023-07-16T09:38:22;36.40;13.10
19359;DHT22;9815;52.334;20.890;2023-07-16T09:40:52;36.50;13.00
19359;DHT22;9815;52.334;20.890;2023-07-16T09:43:22;36.60;13.50
19359;DHT22;9815;52.334;20.890;2023-07-16T09:45:51;36.60;13.50
19359;DHT22;9815;52.334;20.890;2023-07-16T09:48:20;36.80;13.20
19359;DHT22;9815;52.334;20.890;2023-07-16T09:50:50;36.70;13.10
19359;DHT22;9815;52.334;20.890;2023-07-16T09:53:20;37.20;12.90
19359;DHT22;9815;52.334;20.890;2023-07-16T09:55:52;37.30;12.20
19359;DHT22;9815;52.334;20.890;2023-07-16T09:58:21;37.50;12.00
19359;DHT22;9815;52.334;20.890;2023-07-16T10:00:53;37.30;11.80
19359;DHT22;9815;52.334;20.890;2023-07-16T10:03:22;37.00;11.40
19359;DHT22;9815;52.334;20.890;2023-07-16T10:05:50;37.10;11.80
19359;DHT22;9815;52.334;20.890;2023-07-16T10:08:20;37.20;11.80
19359;DHT22;9815;52.334;20.890;2023-07-16T10:10:52;37.10;12.20
19359;DHT22;9815;52.334;20.890;2023-07-16T10:13:23;37.00;12.60
19359;DHT22;9815;52.334;20.890;2023-07-16T10:15:54;36.80;12.90
19359;DHT22;9815;52.334;20.890;2023-07-16T10:18:24;36.60;12.90
19359;DHT22;9815;52.334;20.890;2023-07-16T10:20:59;36.70;13.00
19359;DHT22;9815;52.334;20.890;2023-07-16T10:23:36;37.20;12.70
19359;DHT22;9815;52.334;20.890;2023-07-16T10:26:06;37.20;12.20
19359;DHT22;9815;52.334;20.890;2023-07-16T10:28:34;36.90;12.80
19359;DHT22;9815;52.334;20.890;2023-07-16T10:31:05;36.20;13.30
19359;DHT22;9815;52.334;20.890;2023-07-16T10:33:34;35.60;14.30
19359;DHT22;9815;52.334;20.890;2023-07-16T10:36:04;35.00;14.70
19359;DHT22;9815;52.334;20.890;2023-07-16T10:38:40;34.70;16.10
19359;DHT22;9815;52.334;20.890;2023-07-16T10:41:10;34.10;17.20
19359;DHT22;9815;52.334;20.890;2023-07-16T10:43:38;33.60;18.10
19359;DHT22;9815;52.334;20.890;2023-07-16T10:46:09;33.20;19.30
19359;DHT22;9815;52.334;20.890;2023-07-16T10:48:37;33.20;19.60
19359;DHT22;9815;52.334;20.890;2023-07-16T10:51:08;33.10;19.30
19359;DHT22;9815;52.334;20.890;2023-07-16T10:53:41;33.10;19.80
19359;DHT22;9815;52.334;20.890;2023-07-16T10:56:09;33.10;19.60
19359;DHT22;9815;52.334;20.890;2023-07-16T10:58:38;33.30;20.10
19359;DHT22;9815;52.334;20.890;2023-07-16T11:01:09;33.40;19.40
19359;DHT22;9815;52.334;20.890;2023-07-16T11:03:38;33.50;19.20
19359;DHT22;9815;52.334;20.890;2023-07-16T11:06:06;33.50;19.10
19359;DHT22;9815;52.334;20.890;2023-07-16T11:08:34;33.50;19.40
19359;DHT22;9815;52.334;20.890;2023-07-16T11:11:03;34.00;19.00
19359;DHT22;9815;52.334;20.890;2023-07-16T11:13:32;34.70;17.80
19359;DHT22;9815;52.334;20.890;2023-07-16T11:16:07;35.30;17.30
19359;DHT22;9815;52.334;20.890;2023-07-16T11:18:37;35.10;16.90
19359;DHT22;9815;52.334;20.890;2023-07-16T11:21:05;34.70;17.40
19359;DHT22;9815;52.334;20.890;2023-07-16T11:23:34;35.00;17.20
19359;DHT22;9815;52.334;20.890;2023-07-16T11:26:03;35.00;16.90
19359;DHT22;9815;52.334;20.890;2023-07-16T11:28:38;34.80;17.00
19359;DHT22;9815;52.334;20.890;2023-07-16T11:31:10;34.60;17.50
19359;DHT22;9815;52.334;20.890;2023-07-16T11:33:43;34.60;17.60
19359;DHT22;9815;52.334;20.890;2023-07-16T11:36:11;34.90;17.60
19359;DHT22;9815;52.334;20.890;2023-07-16T11:38:40;35.10;16.40
19359;DHT22;9815;52.334;20.890;2023-07-16T11:41:09;35.10;16.60
19359;DHT22;9815;52.334;20.890;2023-07-16T11:43:40;35.60;16.90
19359;DHT22;9815;52.334;20.890;2023-07-16T11:46:15;36.20;16.00
19359;DHT22;9815;52.334;20.890;2023-07-16T11:48:46;36.00;15.40
19359;DHT22;9815;52.334;20.890;2023-07-16T11:51:15;35.30;16.20
19359;DHT22;9815;52.334;20.890;2023-07-16T11:53:43;34.90;17.60
19359;DHT22;9815;52.334;20.890;2023-07-16T11:56:11;34.70;17.30
19359;DHT22;9815;52.334;20.890;2023-07-16T11:58:40;34.50;17.80
19359;DHT22;9815;52.334;20.890;2023-07-16T12:01:09;34.20;18.20
19359;DHT22;9815;52.334;20.890;2023-07-16T12:03:37;34.20;17.80
19359;DHT22;9815;52.334;20.890;2023-07-16T12:06:08;34.60;17.70
19359;DHT22;9815;52.334;20.890;2023-07-16T12:08:36;35.40;16.60
19359;DHT22;9815;52.334;20.890;2023-07-16T12:11:05;35.90;15.40
19359;DHT22;9815;52.334;20.890;2023-07-16T12:13:33;36.10;15.10
19359;DHT22;9815;52.334;20.890;2023-07-16T12:16:01;36.00;14.90
19359;DHT22;9815;52.334;20.890;2023-07-16T12:18:30;35.40;15.40
19359;DHT22;9815;52.334;20.890;2023-07-16T12:20:58;35.10;16.00
19359;DHT22;9815;52.334;20.890;2023-07-16T12:23:28;35.50;15.90
19359;DHT22;9815;52.334;20.890;2023-07-16T12:25:56;35.70;16.30
19359;DHT22;9815;52.334;20.890;2023-07-16T12:28:25;35.60;16.00
19359;DHT22;9815;52.334;20.890;2023-07-16T12:30:53;35.20;15.90
19359;DHT22;9815;52.334;20.890;2023-07-16T12:33:30;34.90;16.40
19359;DHT22;9815;52.334;20.890;2023-07-16T12:35:58;35.00;16.90
19359;DHT22;9815;52.334;20.890;2023-07-16T12:38:28;34.90;16.20
19359;DHT22;9815;52.334;20.890;2023-07-16T12:40:56;34.60;16.10
19359;DHT22;9815;52.334;20.890;2023-07-16T12:43:24;34.10;16.70
19359;DHT22;9815;52.334;20.890;2023-07-16T12:45:53;33.80;16.60
19359;DHT22;9815;52.334;20.890;2023-07-16T12:48:21;33.40;16.70
19359;DHT22;9815;52.334;20.890;2023-07-16T12:50:50;33.30;16.80
19359;DHT22;9815;52.334;20.890;2023-07-16T12:53:19;33.80;16.70
19359;DHT22;9815;52.334;20.890;2023-07-16T12:55:48;34.10;15.90
19359;DHT22;9815;52.334;20.890;2023-07-16T12:58:17;33.70;15.80
19359;DHT22;9815;52.334;20.890;2023-07-16T13:00:45;33.30;16.20
19359;DHT22;9815;52.334;20.890;2023-07-16T13:03:14;32.80;16.80
19359;DHT22;9815;52.334;20.890;2023-07-16T13:05:44;32.60;17.30
19359;DHT22;9815;52.334;20.890;2023-07-16T13:08:12;32.40;17.50
19359;DHT22;9815;52.334;20.890;2023-07-16T13:10:40;32.30;18.20
19359;DHT22;9815;52.334;20.890;2023-07-16T13:13:10;32.40;17.90
19359;DHT22;9815;52.334;20.890;2023-07-16T13:15:38;32.50;17.60
19359;DHT22;9815;52.334;20.890;2023-07-16T13:18:09;32.70;17.60
19359;DHT22;9815;52.334;20.890;2023-07-16T13:20:39;33.00;16.60
19359;DHT22;9815;52.334;20.890;2023-07-16T13:23:07;33.10;16.60
19359;DHT22;9815;52.334;20.890;2023-07-16T13:25:36;33.10;16.80
19359;DHT22;9815;52.334;20.890;2023-07-16T13:28:05;32.80;17.50
19359;DHT22;9815;52.334;20.890;2023-07-16T13:30:35;32.60;17.60
19359;DHT22;9815;52.334;20.890;2023-07-16T13:33:04;32.50;17.50
19359;DHT22;9815;52.334;20.890;2023-07-16T13:35:32;32.30;18.00
19359;DHT22;9815;52.334;20.890;2023-07-16T13:38:00;32.30;18.00
19359;DHT22;9815;52.334;20.890;2023-07-16T13:40:29;32.40;18.00
19359;DHT22;9815;52.334;20.890;2023-07-16T13:42:57;32.40;17.80
19359;DHT22;9815;52.334;20.890;2023-07-16T13:45:26;32.30;17.60
19359;DHT22;9815;52.334;20.890;2023-07-16T13:47:56;32.40;17.70
19359;DHT22;9815;52.334;20.890;2023-07-16T13:50:24;32.50;17.70
19359;DHT22;9815;52.334;20.890;2023-07-16T13:52:53;32.70;17.70
19359;DHT22;9815;52.334;20.890;2023-07-16T13:55:21;33.00;17.20
19359;DHT22;9815;52.334;20.890;2023-07-16T13:57:49;33.40;16.90
19359;DHT22;9815;52.334;20.890;2023-07-16T14:00:18;33.90;16.00
19359;DHT22;9815;52.334;20.890;2023-07-16T14:02:46;34.00;15.20
19359;DHT22;9815;52.334;20.890;2023-07-16T14:05:16;33.80;15.70
19359;DHT22;9815;52.334;20.890;2023-07-16T14:07:44;33.70;15.40
19359;DHT22;9815;52.334;20.890;2023-07-16T14:10:13;33.80;15.60
19359;DHT22;9815;52.334;20.890;2023-07-16T14:12:42;34.20;15.30
19359;DHT22;9815;52.334;20.890;2023-07-16T14:15:12;34.40;14.80
19359;DHT22;9815;52.334;20.890;2023-07-16T14:17:44;34.70;13.80
19359;DHT22;9815;52.334;20.890;2023-07-16T14:20:12;34.30;14.20
19359;DHT22;9815;52.334;20.890;2023-07-16T14:22:41;34.10;14.90
19359;DHT22;9815;52.334;20.890;2023-07-16T14:25:10;33.60;15.20
19359;DHT22;9815;52.334;20.890;2023-07-16T14:27:38;33.10;16.10
19359;DHT22;9815;52.334;20.890;2023-07-16T14:30:07;32.80;16.30
19359;DHT22;9815;52.334;20.890;2023-07-16T14:32:37;32.40;16.30
19359;DHT22;9815;52.334;20.890;2023-07-16T14:35:06;32.10;16.80
19359;DHT22;9815;52.334;20.890;2023-07-16T14:37:53;31.90;17.10
19359;DHT22;9815;52.334;20.890;2023-07-16T14:40:21;31.70;16.90
19359;DHT22;9815;52.334;20.890;2023-07-16T14:42:49;31.60;17.10
19359;DHT22;9815;52.334;20.890;2023-07-16T14:45:18;31.50;17.40
19359;DHT22;9815;52.334;20.890;2023-07-16T14:47:46;31.30;17.60
19359;DHT22;9815;52.334;20.890;2023-07-16T14:50:15;31.20;18.10
19359;DHT22;9815;52.334;20.890;2023-07-16T14:52:43;31.10;17.90
19359;DHT22;9815;52.334;20.890;2023-07-16T14:55:12;31.00;18.10
19359;DHT22;9815;52.334;20.890;2023-07-16T14:57:42;30.90;18.40
19359;DHT22;9815;52.334;20.890;2023-07-16T15:00:11;30.80;19.00
19359;DHT22;9815;52.334;20.890;2023-07-16T15:02:41;30.70;18.90
19359;DHT22;9815;52.334;20.890;2023-07-16T15:05:09;30.70;19.20
19359;DHT22;9815;52.334;20.890;2023-07-16T15:07:38;30.60;18.80
19359;DHT22;9815;52.334;20.890;2023-07-16T15:10:07;30.60;18.90
19359;DHT22;9815;52.334;20.890;2023-07-16T15:12:37;30.60;19.30
19359;DHT22;9815;52.334;20.890;2023-07-16T15:15:06;30.50;19.40
19359;DHT22;9815;52.334;20.890;2023-07-16T15:17:34;30.50;19.50
19359;DHT22;9815;52.334;20.890;2023-07-16T15:20:03;30.50;19.40
19359;DHT22;9815;52.334;20.890;2023-07-16T15:22:32;30.40;19.70
19359;DHT22;9815;52.334;20.890;2023-07-16T15:25:00;30.40;19.70
19359;DHT22;9815;52.334;20.890;2023-07-16T15:27:29;30.40;19.50
19359;DHT22;9815;52.334;20.890;2023-07-16T15:29:59;30.40;19.80
19359;DHT22;9815;52.334;20.890;2023-07-16T15:32:28;30.30;19.90
19359;DHT22;9815;52.334;20.890;2023-07-16T15:34:56;30.30;20.60
19359;DHT22;9815;52.334;20.890;2023-07-16T15:37:25;30.20;20.00
19359;DHT22;9815;52.334;20.890;2023-07-16T15:39:53;30.10;20.50
19359;DHT22;9815;52.334;20.890;2023-07-16T15:42:22;30.00;20.30